sensor_id;sensor_type;location;lat;lon;timestamp;P1;durP1;ratioP1;P2;durP2;ratioP2
71973;SDS011;59840;52.122;5.404;2023-05-20T00:02:11;2.47;;;2.20;;
71973;SDS011;59840;52.122;5.404;2023-05-20T00:04:37;4.70;;;1.98;;
71973;SDS011;59840;52.122;5.404;2023-05-20T00:07:06;4.85;;;2.20;;
71973;SDS011;59840;52.122;5.404;2023-05-20T00:09:33;4.70;;;2.30;;
71973;SDS011;59840;52.122;5.404;2023-05-20T00:11:59;6.45;;;2.50;;
71973;SDS011;59840;52.122;5.404;2023-05-20T00:14:26;4.90;;;2.27;;
71973;SDS011;59840;52.122;5.404;2023-05-20T00:16:53;5.28;;;2.58;;
71973;SDS011;59840;52.122;5.404;2023-05-20T00:19:19;3.80;;;2.10;;
71973;SDS011;59840;52.122;5.404;2023-05-20T00:21:46;4.78;;;2.10;;
71973;SDS011;59840;52.122;5.404;2023-05-20T00:24:13;3.85;;;2.20;;
71973;SDS011;59840;52.122;5.404;2023-05-20T00:26:39;3.40;;;2.30;;
71973;SDS011;59840;52.122;5.404;2023-05-20T00:29:06;10.68;;;3.00;;
71973;SDS011;59840;52.122;5.404;2023-05-20T00:31:33;4.30;;;2.05;;
71973;SDS011;59840;52.122;5.404;2023-05-20T00:33:59;4.35;;;1.85;;
71973;SDS011;59840;52.122;5.404;2023-05-20T00:36:26;7.80;;;2.58;;
71973;SDS011;59840;52.122;5.404;2023-05-20T00:38:52;4.63;;;2.13;;
71973;SDS011;59840;52.122;5.404;2023-05-20T00:41:19;9.23;;;2.58;;
71973;SDS011;59840;52.122;5.404;2023-05-20T00:43:46;7.25;;;2.70;;
71973;SDS011;59840;52.122;5.404;2023-05-20T00:46:13;8.65;;;2.70;;
71973;SDS011;59840;52.122;5.404;2023-05-20T00:48:41;6.15;;;2.40;;
71973;SDS011;59840;52.122;5.404;2023-05-20T00:51:12;4.13;;;2.30;;
71973;SDS011;59840;52.122;5.404;2023-05-20T00:53:39;5.20;;;2.38;;
71973;SDS011;59840;52.122;5.404;2023-05-20T00:56:07;5.30;;;2.42;;
71973;SDS011;59840;52.122;5.404;2023-05-20T00:58:34;5.88;;;2.10;;
71973;SDS011;59840;52.122;5.404;2023-05-20T01:01:03;5.82;;;2.42;;
71973;SDS011;59840;52.122;5.404;2023-05-20T01:03:30;6.57;;;2.47;;
71973;SDS011;59840;52.122;5.404;2023-05-20T01:05:57;5.05;;;2.10;;
71973;SDS011;59840;52.122;5.404;2023-05-20T01:08:24;10.55;;;2.45;;
71973;SDS011;59840;52.122;5.404;2023-05-20T01:11:01;6.47;;;2.53;;
71973;SDS011;59840;52.122;5.404;2023-05-20T01:13:32;3.55;;;2.20;;
71973;SDS011;59840;52.122;5.404;2023-05-20T01:16:04;6.10;;;2.57;;
71973;SDS011;59840;52.122;5.404;2023-05-20T01:18:34;3.30;;;2.42;;
71973;SDS011;59840;52.122;5.404;2023-05-20T01:21:01;5.65;;;3.20;;
71973;SDS011;59840;52.122;5.404;2023-05-20T01:23:33;5.40;;;2.22;;
71973;SDS011;59840;52.122;5.404;2023-05-20T01:26:04;5.25;;;2.65;;
71973;SDS011;59840;52.122;5.404;2023-05-20T01:28:32;8.77;;;2.63;;
71973;SDS011;59840;52.122;5.404;2023-05-20T01:31:00;5.68;;;2.25;;
71973;SDS011;59840;52.122;5.404;2023-05-20T01:33:30;5.05;;;2.47;;
71973;SDS011;59840;52.122;5.404;2023-05-20T01:36:01;7.03;;;2.72;;
71973;SDS011;59840;52.122;5.404;2023-05-20T01:38:28;5.82;;;2.55;;
71973;SDS011;59840;52.122;5.404;2023-05-20T01:40:56;6.00;;;2.43;;
71973;SDS011;59840;52.122;5.404;2023-05-20T01:43:24;6.45;;;3.00;;
71973;SDS011;59840;52.122;5.404;2023-05-20T01:45:53;6.18;;;2.78;;
71973;SDS011;59840;52.122;5.404;2023-05-20T01:48:20;5.32;;;2.60;;
71973;SDS011;59840;52.122;5.404;2023-05-20T01:50:46;5.97;;;2.65;;
71973;SDS011;59840;52.122;5.404;2023-05-20T01:53:13;5.83;;;2.37;;
71973;SDS011;59840;52.122;5.404;2023-05-20T01:55:39;4.85;;;2.28;;
71973;SDS011;59840;52.122;5.404;2023-05-20T01:58:06;7.03;;;2.60;;
71973;SDS011;59840;52.122;5.404;2023-05-20T02:00:33;4.20;;;2.45;;
71973;SDS011;59840;52.122;5.404;2023-05-20T02:03:00;5.32;;;2.70;;
71973;SDS011;59840;52.122;5.404;2023-05-20T02:05:28;5.00;;;2.53;;
71973;SDS011;59840;52.122;5.404;2023-05-20T02:07:56;5.80;;;2.17;;
71973;SDS011;59840;52.122;5.404;2023-05-20T02:10:22;5.03;;;2.90;;
71973;SDS011;59840;52.122;5.404;2023-05-20T02:12:49;7.18;;;2.83;;
71973;SDS011;59840;52.122;5.404;2023-05-20T02:15:15;4.00;;;2.50;;
71973;SDS011;59840;52.122;5.404;2023-05-20T02:17:42;4.87;;;2.63;;
71973;SDS011;59840;52.122;5.404;2023-05-20T02:20:09;5.13;;;2.35;;
71973;SDS011;59840;52.122;5.404;2023-05-20T02:22:36;3.15;;;2.33;;
71973;SDS011;59840;52.122;5.404;2023-05-20T02:25:03;5.05;;;2.50;;
71973;SDS011;59840;52.122;5.404;2023-05-20T02:27:30;7.25;;;2.92;;
71973;SDS011;59840;52.122;5.404;2023-05-20T02:29:57;3.20;;;2.20;;
71973;SDS011;59840;52.122;5.404;2023-05-20T02:32:23;3.60;;;2.30;;
71973;SDS011;59840;52.122;5.404;2023-05-20T02:34:53;6.43;;;2.90;;
71973;SDS011;59840;52.122;5.404;2023-05-20T02:37:20;6.85;;;3.00;;
71973;SDS011;59840;52.122;5.404;2023-05-20T02:39:47;8.80;;;2.80;;
71973;SDS011;59840;52.122;5.404;2023-05-20T02:42:14;5.20;;;2.73;;
71973;SDS011;59840;52.122;5.404;2023-05-20T02:44:40;3.63;;;2.67;;
71973;SDS011;59840;52.122;5.404;2023-05-20T02:47:07;3.90;;;2.55;;
71973;SDS011;59840;52.122;5.404;2023-05-20T02:49:33;8.00;;;3.08;;
71973;SDS011;59840;52.122;5.404;2023-05-20T02:52:00;4.05;;;2.58;;
71973;SDS011;59840;52.122;5.404;2023-05-20T02:54:27;5.17;;;2.50;;
71973;SDS011;59840;52.122;5.404;2023-05-20T02:56:53;8.20;;;2.95;;
71973;SDS011;59840;52.122;5.404;2023-05-20T02:59:20;4.70;;;2.90;;
71973;SDS011;59840;52.122;5.404;2023-05-20T03:01:46;4.88;;;3.22;;
71973;SDS011;59840;52.122;5.404;2023-05-20T03:04:13;6.30;;;2.75;;
71973;SDS011;59840;52.122;5.404;2023-05-20T03:06:40;5.23;;;2.37;;
71973;SDS011;59840;52.122;5.404;2023-05-20T03:09:09;5.40;;;3.25;;
71973;SDS011;59840;52.122;5.404;2023-05-20T03:11:36;9.13;;;2.92;;
71973;SDS011;59840;52.122;5.404;2023-05-20T03:14:03;8.18;;;2.85;;
71973;SDS011;59840;52.122;5.404;2023-05-20T03:16:29;6.10;;;2.83;;
71973;SDS011;59840;52.122;5.404;2023-05-20T03:18:56;4.93;;;2.83;;
71973;SDS011;59840;52.122;5.404;2023-05-20T03:21:22;5.50;;;2.83;;
71973;SDS011;59840;52.122;5.404;2023-05-20T03:23:49;7.97;;;2.95;;
71973;SDS011;59840;52.122;5.404;2023-05-20T03:26:16;4.05;;;2.75;;
71973;SDS011;59840;52.122;5.404;2023-05-20T03:28:42;6.10;;;3.15;;
71973;SDS011;59840;52.122;5.404;2023-05-20T03:31:09;3.47;;;2.70;;
71973;SDS011;59840;52.122;5.404;2023-05-20T03:33:36;4.05;;;3.13;;
71973;SDS011;59840;52.122;5.404;2023-05-20T03:36:02;6.47;;;2.88;;
71973;SDS011;59840;52.122;5.404;2023-05-20T03:38:29;4.43;;;2.70;;
71973;SDS011;59840;52.122;5.404;2023-05-20T03:40:56;4.60;;;2.70;;
71973;SDS011;59840;52.122;5.404;2023-05-20T03:43:22;8.13;;;3.20;;
71973;SDS011;59840;52.122;5.404;2023-05-20T03:45:50;5.00;;;3.00;;
71973;SDS011;59840;52.122;5.404;2023-05-20T03:48:16;8.35;;;3.25;;
71973;SDS011;59840;52.122;5.404;2023-05-20T03:50:43;5.40;;;2.75;;
71973;SDS011;59840;52.122;5.404;2023-05-20T03:53:09;6.03;;;3.25;;
71973;SDS011;59840;52.122;5.404;2023-05-20T03:55:36;6.13;;;2.77;;
71973;SDS011;59840;52.122;5.404;2023-05-20T03:58:04;5.35;;;3.10;;
71973;SDS011;59840;52.122;5.404;2023-05-20T04:00:31;5.70;;;3.10;;
71973;SDS011;59840;52.122;5.404;2023-05-20T04:02:58;8.57;;;3.75;;
71973;SDS011;59840;52.122;5.404;2023-05-20T04:05:24;4.88;;;2.92;;
71973;SDS011;59840;52.122;5.404;2023-05-20T04:07:52;5.00;;;3.03;;
71973;SDS011;59840;52.122;5.404;2023-05-20T04:10:18;4.40;;;2.55;;
71973;SDS011;59840;52.122;5.404;2023-05-20T04:12:48;5.45;;;3.08;;
71973;SDS011;59840;52.122;5.404;2023-05-20T04:15:15;7.05;;;3.13;;
71973;SDS011;59840;52.122;5.404;2023-05-20T04:17:42;8.88;;;3.30;;
71973;SDS011;59840;52.122;5.404;2023-05-20T04:20:13;5.60;;;3.03;;
71973;SDS011;59840;52.122;5.404;2023-05-20T04:22:40;8.05;;;3.05;;
71973;SDS011;59840;52.122;5.404;2023-05-20T04:25:07;8.85;;;3.60;;
71973;SDS011;59840;52.122;5.404;2023-05-20T04:27:35;8.15;;;3.38;;
71973;SDS011;59840;52.122;5.404;2023-05-20T04:30:03;5.35;;;3.00;;
71973;SDS011;59840;52.122;5.404;2023-05-20T04:32:31;6.80;;;3.37;;
71973;SDS011;59840;52.122;5.404;2023-05-20T04:34:59;5.95;;;3.50;;
71973;SDS011;59840;52.122;5.404;2023-05-20T04:37:27;5.38;;;2.80;;
71973;SDS011;59840;52.122;5.404;2023-05-20T04:39:54;5.72;;;2.70;;
71973;SDS011;59840;52.122;5.404;2023-05-20T04:42:20;8.10;;;3.42;;
71973;SDS011;59840;52.122;5.404;2023-05-20T04:44:47;3.50;;;2.80;;
71973;SDS011;59840;52.122;5.404;2023-05-20T04:47:14;5.28;;;3.15;;
71973;SDS011;59840;52.122;5.404;2023-05-20T04:49:40;4.85;;;2.88;;
71973;SDS011;59840;52.122;5.404;2023-05-20T04:52:07;6.85;;;2.97;;
71973;SDS011;59840;52.122;5.404;2023-05-20T04:54:34;4.82;;;2.85;;
71973;SDS011;59840;52.122;5.404;2023-05-20T04:57:00;3.47;;;2.60;;
71973;SDS011;59840;52.122;5.404;2023-05-20T04:59:28;9.48;;;3.55;;
71973;SDS011;59840;52.122;5.404;2023-05-20T05:01:54;4.03;;;2.83;;
71973;SDS011;59840;52.122;5.404;2023-05-20T05:04:21;6.55;;;3.05;;
71973;SDS011;59840;52.122;5.404;2023-05-20T05:06:48;5.18;;;3.15;;
71973;SDS011;59840;52.122;5.404;2023-05-20T05:09:15;7.33;;;2.80;;
71973;SDS011;59840;52.122;5.404;2023-05-20T05:11:42;5.70;;;2.55;;
71973;SDS011;59840;52.122;5.404;2023-05-20T05:14:08;4.85;;;3.20;;
71973;SDS011;59840;52.122;5.404;2023-05-20T05:16:35;6.13;;;2.70;;
71973;SDS011;59840;52.122;5.404;2023-05-20T05:19:01;6.40;;;2.60;;
71973;SDS011;59840;52.122;5.404;2023-05-20T05:21:28;9.37;;;3.23;;
71973;SDS011;59840;52.122;5.404;2023-05-20T05:23:55;6.90;;;2.97;;
71973;SDS011;59840;52.122;5.404;2023-05-20T05:26:23;6.07;;;3.13;;
71973;SDS011;59840;52.122;5.404;2023-05-20T05:28:50;7.35;;;3.00;;
71973;SDS011;59840;52.122;5.404;2023-05-20T05:31:16;4.95;;;3.15;;
71973;SDS011;59840;52.122;5.404;2023-05-20T05:33:43;6.30;;;2.30;;
71973;SDS011;59840;52.122;5.404;2023-05-20T05:36:09;3.92;;;2.78;;
71973;SDS011;59840;52.122;5.404;2023-05-20T05:38:36;4.40;;;2.63;;
71973;SDS011;59840;52.122;5.404;2023-05-20T05:41:03;6.85;;;2.50;;
71973;SDS011;59840;52.122;5.404;2023-05-20T05:43:29;5.10;;;2.75;;
71973;SDS011;59840;52.122;5.404;2023-05-20T05:45:56;3.87;;;2.47;;
71973;SDS011;59840;52.122;5.404;2023-05-20T05:48:23;3.85;;;2.38;;
71973;SDS011;59840;52.122;5.404;2023-05-20T05:50:49;4.93;;;3.00;;
71973;SDS011;59840;52.122;5.404;2023-05-20T05:53:16;3.75;;;2.60;;
71973;SDS011;59840;52.122;5.404;2023-05-20T05:55:44;3.03;;;2.65;;
71973;SDS011;59840;52.122;5.404;2023-05-20T05:58:12;4.27;;;2.17;;
71973;SDS011;59840;52.122;5.404;2023-05-20T06:00:38;5.40;;;2.50;;
71973;SDS011;59840;52.122;5.404;2023-05-20T06:03:05;6.38;;;2.97;;
71973;SDS011;59840;52.122;5.404;2023-05-20T06:05:32;4.97;;;2.50;;
71973;SDS011;59840;52.122;5.404;2023-05-20T06:07:59;5.55;;;2.38;;
71973;SDS011;59840;52.122;5.404;2023-05-20T06:10:26;5.53;;;2.43;;
71973;SDS011;59840;52.122;5.404;2023-05-20T06:12:52;4.63;;;2.50;;
71973;SDS011;59840;52.122;5.404;2023-05-20T06:15:19;7.90;;;2.50;;
71973;SDS011;59840;52.122;5.404;2023-05-20T06:17:46;4.38;;;2.28;;
71973;SDS011;59840;52.122;5.404;2023-05-20T06:20:13;4.43;;;2.60;;
71973;SDS011;59840;52.122;5.404;2023-05-20T06:22:39;5.93;;;2.47;;
71973;SDS011;59840;52.122;5.404;2023-05-20T06:25:06;5.60;;;2.80;;
71973;SDS011;59840;52.122;5.404;2023-05-20T06:27:34;4.50;;;2.65;;
71973;SDS011;59840;52.122;5.404;2023-05-20T06:30:01;6.40;;;2.47;;
71973;SDS011;59840;52.122;5.404;2023-05-20T06:32:28;6.97;;;2.72;;
71973;SDS011;59840;52.122;5.404;2023-05-20T06:34:54;7.30;;;2.47;;
71973;SDS011;59840;52.122;5.404;2023-05-20T06:37:21;3.97;;;2.63;;
71973;SDS011;59840;52.122;5.404;2023-05-20T06:39:51;4.05;;;2.10;;
71973;SDS011;59840;52.122;5.404;2023-05-20T06:42:19;4.75;;;2.20;;
71973;SDS011;59840;52.122;5.404;2023-05-20T06:44:46;3.58;;;2.55;;
71973;SDS011;59840;52.122;5.404;2023-05-20T06:47:14;3.33;;;2.40;;
71973;SDS011;59840;52.122;5.404;2023-05-20T06:49:42;3.20;;;2.10;;
71973;SDS011;59840;52.122;5.404;2023-05-20T06:52:12;5.55;;;2.60;;
71973;SDS011;59840;52.122;5.404;2023-05-20T06:54:39;2.67;;;2.00;;
71973;SDS011;59840;52.122;5.404;2023-05-20T06:57:07;4.45;;;2.08;;
71973;SDS011;59840;52.122;5.404;2023-05-20T06:59:34;5.13;;;2.40;;
71973;SDS011;59840;52.122;5.404;2023-05-20T07:02:04;2.22;;;2.00;;
71973;SDS011;59840;52.122;5.404;2023-05-20T07:04:31;2.55;;;2.20;;
71973;SDS011;59840;52.122;5.404;2023-05-20T07:06:57;4.38;;;2.17;;
71973;SDS011;59840;52.122;5.404;2023-05-20T07:09:24;3.90;;;2.33;;
71973;SDS011;59840;52.122;5.404;2023-05-20T07:11:51;3.70;;;2.20;;
71973;SDS011;59840;52.122;5.404;2023-05-20T07:14:18;3.75;;;1.90;;
71973;SDS011;59840;52.122;5.404;2023-05-20T07:16:44;4.25;;;2.30;;
71973;SDS011;59840;52.122;5.404;2023-05-20T07:19:11;3.28;;;1.67;;
71973;SDS011;59840;52.122;5.404;2023-05-20T07:21:38;2.55;;;1.85;;
71973;SDS011;59840;52.122;5.404;2023-05-20T07:24:04;3.43;;;2.00;;
71973;SDS011;59840;52.122;5.404;2023-05-20T07:26:31;3.25;;;1.85;;
71973;SDS011;59840;52.122;5.404;2023-05-20T07:29:04;3.90;;;2.17;;
71973;SDS011;59840;52.122;5.404;2023-05-20T07:31:31;3.63;;;1.83;;
71973;SDS011;59840;52.122;5.404;2023-05-20T07:33:58;3.63;;;2.45;;
71973;SDS011;59840;52.122;5.404;2023-05-20T07:36:25;4.77;;;1.67;;
71973;SDS011;59840;52.122;5.404;2023-05-20T07:38:53;2.83;;;1.77;;
71973;SDS011;59840;52.122;5.404;2023-05-20T07:41:30;5.50;;;1.40;;
71973;SDS011;59840;52.122;5.404;2023-05-20T07:43:57;3.60;;;1.40;;
71973;SDS011;59840;52.122;5.404;2023-05-20T07:46:24;2.88;;;1.50;;
71973;SDS011;59840;52.122;5.404;2023-05-20T07:48:51;3.43;;;1.60;;
71973;SDS011;59840;52.122;5.404;2023-05-20T07:51:18;1.85;;;1.30;;
71973;SDS011;59840;52.122;5.404;2023-05-20T07:53:45;2.88;;;1.70;;
71973;SDS011;59840;52.122;5.404;2023-05-20T07:56:11;5.32;;;1.50;;
71973;SDS011;59840;52.122;5.404;2023-05-20T07:58:40;4.20;;;1.58;;
71973;SDS011;59840;52.122;5.404;2023-05-20T08:01:07;1.97;;;1.20;;
71973;SDS011;59840;52.122;5.404;2023-05-20T08:03:34;1.33;;;0.93;;
71973;SDS011;59840;52.122;5.404;2023-05-20T08:06:02;2.30;;;1.30;;
71973;SDS011;59840;52.122;5.404;2023-05-20T08:08:28;1.95;;;1.42;;
71973;SDS011;59840;52.122;5.404;2023-05-20T08:10:58;2.38;;;1.00;;
71973;SDS011;59840;52.122;5.404;2023-05-20T08:13:26;2.30;;;0.90;;
71973;SDS011;59840;52.122;5.404;2023-05-20T08:15:53;1.45;;;0.98;;
71973;SDS011;59840;52.122;5.404;2023-05-20T08:18:20;1.70;;;1.10;;
71973;SDS011;59840;52.122;5.404;2023-05-20T08:20:47;2.75;;;0.98;;
71973;SDS011;59840;52.122;5.404;2023-05-20T08:23:14;1.60;;;1.10;;
71973;SDS011;59840;52.122;5.404;2023-05-20T08:25:41;1.10;;;0.77;;
71973;SDS011;59840;52.122;5.404;2023-05-20T08:28:07;3.20;;;0.68;;
71973;SDS011;59840;52.122;5.404;2023-05-20T08:30:34;2.70;;;0.80;;
71973;SDS011;59840;52.122;5.404;2023-05-20T08:33:01;2.40;;;0.70;;
71973;SDS011;59840;52.122;5.404;2023-05-20T08:35:27;1.35;;;0.60;;
71973;SDS011;59840;52.122;5.404;2023-05-20T08:37:54;4.30;;;0.70;;
71973;SDS011;59840;52.122;5.404;2023-05-20T08:40:21;2.08;;;0.93;;
71973;SDS011;59840;52.122;5.404;2023-05-20T08:42:48;3.53;;;0.77;;
71973;SDS011;59840;52.122;5.404;2023-05-20T08:45:19;1.67;;;0.77;;
71973;SDS011;59840;52.122;5.404;2023-05-20T08:47:49;6.45;;;1.40;;
71973;SDS011;59840;52.122;5.404;2023-05-20T08:50:16;5.00;;;1.00;;
71973;SDS011;59840;52.122;5.404;2023-05-20T08:52:43;2.78;;;1.08;;
71973;SDS011;59840;52.122;5.404;2023-05-20T08:55:16;1.33;;;0.80;;
71973;SDS011;59840;52.122;5.404;2023-05-20T08:57:49;2.45;;;1.20;;
71973;SDS011;59840;52.122;5.404;2023-05-20T09:00:16;1.83;;;0.90;;
71973;SDS011;59840;52.122;5.404;2023-05-20T09:02:45;1.13;;;1.03;;
71973;SDS011;59840;52.122;5.404;2023-05-20T09:05:12;1.92;;;0.82;;
71973;SDS011;59840;52.122;5.404;2023-05-20T09:07:39;3.00;;;0.98;;
71973;SDS011;59840;52.122;5.404;2023-05-20T09:10:08;1.23;;;0.65;;
71973;SDS011;59840;52.122;5.404;2023-05-20T09:12:35;1.75;;;1.10;;
71973;SDS011;59840;52.122;5.404;2023-05-20T09:15:04;1.67;;;0.70;;
71973;SDS011;59840;52.122;5.404;2023-05-20T09:17:34;1.33;;;0.70;;
71973;SDS011;59840;52.122;5.404;2023-05-20T09:20:06;1.33;;;0.85;;
71973;SDS011;59840;52.122;5.404;2023-05-20T09:22:34;1.80;;;1.10;;
71973;SDS011;59840;52.122;5.404;2023-05-20T09:25:00;1.20;;;0.90;;
71973;SDS011;59840;52.122;5.404;2023-05-20T09:27:27;2.50;;;1.00;;
71973;SDS011;59840;52.122;5.404;2023-05-20T09:29:54;1.10;;;0.77;;
71973;SDS011;59840;52.122;5.404;2023-05-20T09:32:23;1.33;;;0.80;;
71973;SDS011;59840;52.122;5.404;2023-05-20T09:34:53;2.63;;;1.10;;
71973;SDS011;59840;52.122;5.404;2023-05-20T09:37:20;1.45;;;0.60;;
71973;SDS011;59840;52.122;5.404;2023-05-20T09:40:00;2.90;;;0.90;;
71973;SDS011;59840;52.122;5.404;2023-05-20T09:42:52;1.63;;;0.90;;
71973;SDS011;59840;52.122;5.404;2023-05-20T09:45:28;1.00;;;0.80;;
71973;SDS011;59840;52.122;5.404;2023-05-20T09:47:55;1.40;;;0.82;;
71973;SDS011;59840;52.122;5.404;2023-05-20T09:50:23;1.73;;;0.90;;
71973;SDS011;59840;52.122;5.404;2023-05-20T09:52:51;1.87;;;1.00;;
71973;SDS011;59840;52.122;5.404;2023-05-20T09:55:19;2.33;;;1.08;;
71973;SDS011;59840;52.122;5.404;2023-05-20T09:57:48;1.30;;;0.98;;
71973;SDS011;59840;52.122;5.404;2023-05-20T10:00:15;4.43;;;1.00;;
71973;SDS011;59840;52.122;5.404;2023-05-20T10:02:46;2.00;;;1.10;;
71973;SDS011;59840;52.122;5.404;2023-05-20T10:14:17;4.63;;;1.10;;
71973;SDS011;59840;52.122;5.404;2023-05-20T10:17:15;1.33;;;0.93;;
71973;SDS011;59840;52.122;5.404;2023-05-20T10:19:46;3.40;;;0.97;;
71973;SDS011;59840;52.122;5.404;2023-05-20T10:22:24;1.30;;;1.10;;
71973;SDS011;59840;52.122;5.404;2023-05-20T10:24:58;1.50;;;1.17;;
71973;SDS011;59840;52.122;5.404;2023-05-20T10:27:26;2.33;;;1.00;;
71973;SDS011;59840;52.122;5.404;2023-05-20T10:29:54;1.60;;;0.90;;
71973;SDS011;59840;52.122;5.404;2023-05-20T10:32:29;2.77;;;1.03;;
71973;SDS011;59840;52.122;5.404;2023-05-20T10:35:01;3.72;;;0.80;;
71973;SDS011;59840;52.122;5.404;2023-05-20T10:37:32;1.67;;;1.02;;
71973;SDS011;59840;52.122;5.404;2023-05-20T10:40:12;2.20;;;1.30;;
71973;SDS011;59840;52.122;5.404;2023-05-20T10:42:40;1.55;;;1.02;;
71973;SDS011;59840;52.122;5.404;2023-05-20T10:45:09;2.80;;;0.93;;
71973;SDS011;59840;52.122;5.404;2023-05-20T10:47:40;4.40;;;1.30;;
71973;SDS011;59840;52.122;5.404;2023-05-20T10:50:25;2.17;;;1.10;;
71973;SDS011;59840;52.122;5.404;2023-05-20T10:53:01;3.65;;;1.23;;
71973;SDS011;59840;52.122;5.404;2023-05-20T10:55:34;2.15;;;0.90;;
71973;SDS011;59840;52.122;5.404;2023-05-20T10:58:02;1.97;;;1.00;;
71973;SDS011;59840;52.122;5.404;2023-05-20T11:00:30;2.13;;;1.17;;
71973;SDS011;59840;52.122;5.404;2023-05-20T11:03:04;1.58;;;1.05;;
71973;SDS011;59840;52.122;5.404;2023-05-20T11:05:32;4.03;;;0.98;;
71973;SDS011;59840;52.122;5.404;2023-05-20T11:08:04;2.83;;;1.10;;
71973;SDS011;59840;52.122;5.404;2023-05-20T11:10:52;1.30;;;1.00;;
71973;SDS011;59840;52.122;5.404;2023-05-20T11:13:21;1.60;;;1.00;;
71973;SDS011;59840;52.122;5.404;2023-05-20T11:15:48;3.40;;;1.17;;
71973;SDS011;59840;52.122;5.404;2023-05-20T11:18:15;2.35;;;1.40;;
71973;SDS011;59840;52.122;5.404;2023-05-20T11:20:45;1.58;;;1.00;;
71973;SDS011;59840;52.122;5.404;2023-05-20T11:23:13;1.30;;;0.80;;
71973;SDS011;59840;52.122;5.404;2023-05-20T11:25:40;1.42;;;0.70;;
71973;SDS011;59840;52.122;5.404;2023-05-20T11:28:08;1.50;;;0.85;;
71973;SDS011;59840;52.122;5.404;2023-05-20T11:30:41;2.47;;;1.08;;
71973;SDS011;59840;52.122;5.404;2023-05-20T11:33:10;2.83;;;1.10;;
71973;SDS011;59840;52.122;5.404;2023-05-20T11:35:43;2.07;;;1.37;;
71973;SDS011;59840;52.122;5.404;2023-05-20T11:38:14;1.38;;;1.00;;
71973;SDS011;59840;52.122;5.404;2023-05-20T11:40:51;2.08;;;1.02;;
71973;SDS011;59840;52.122;5.404;2023-05-20T11:43:19;1.85;;;0.80;;
71973;SDS011;59840;52.122;5.404;2023-05-20T11:45:51;2.47;;;0.95;;
71973;SDS011;59840;52.122;5.404;2023-05-20T11:48:26;3.53;;;1.00;;
71973;SDS011;59840;52.122;5.404;2023-05-20T11:50:54;4.05;;;1.27;;
71973;SDS011;59840;52.122;5.404;2023-05-20T11:53:22;1.90;;;1.00;;
71973;SDS011;59840;52.122;5.404;2023-05-20T11:55:50;2.65;;;1.00;;
71973;SDS011;59840;52.122;5.404;2023-05-20T11:58:18;4.18;;;1.02;;
71973;SDS011;59840;52.122;5.404;2023-05-20T12:00:46;1.47;;;1.10;;
71973;SDS011;59840;52.122;5.404;2023-05-20T12:03:22;1.95;;;0.93;;
71973;SDS011;59840;52.122;5.404;2023-05-20T12:05:49;2.25;;;1.30;;
71973;SDS011;59840;52.122;5.404;2023-05-20T12:08:16;1.77;;;1.05;;
71973;SDS011;59840;52.122;5.404;2023-05-20T12:10:43;1.63;;;1.20;;
71973;SDS011;59840;52.122;5.404;2023-05-20T12:13:12;1.73;;;1.10;;
71973;SDS011;59840;52.122;5.404;2023-05-20T12:15:39;3.92;;;1.05;;
71973;SDS011;59840;52.122;5.404;2023-05-20T12:18:06;1.10;;;0.90;;
71973;SDS011;59840;52.122;5.404;2023-05-20T12:20:33;1.13;;;0.95;;
71973;SDS011;59840;52.122;5.404;2023-05-20T12:23:00;4.53;;;1.10;;
71973;SDS011;59840;52.122;5.404;2023-05-20T12:25:27;1.80;;;1.10;;
71973;SDS011;59840;52.122;5.404;2023-05-20T12:27:54;2.25;;;0.75;;
71973;SDS011;59840;52.122;5.404;2023-05-20T12:30:22;2.03;;;0.93;;
71973;SDS011;59840;52.122;5.404;2023-05-20T12:32:49;1.75;;;0.90;;
71973;SDS011;59840;52.122;5.404;2023-05-20T12:35:25;2.47;;;1.10;;
71973;SDS011;59840;52.122;5.404;2023-05-20T12:38:01;2.50;;;1.07;;
71973;SDS011;59840;52.122;5.404;2023-05-20T12:40:28;3.13;;;0.90;;
71973;SDS011;59840;52.122;5.404;2023-05-20T12:42:54;1.75;;;1.00;;
71973;SDS011;59840;52.122;5.404;2023-05-20T12:45:21;2.13;;;1.00;;
71973;SDS011;59840;52.122;5.404;2023-05-20T12:47:48;2.92;;;1.00;;
71973;SDS011;59840;52.122;5.404;2023-05-20T12:50:15;1.87;;;1.10;;
71973;SDS011;59840;52.122;5.404;2023-05-20T12:52:41;1.02;;;0.90;;
71973;SDS011;59840;52.122;5.404;2023-05-20T12:55:08;3.05;;;0.95;;
71973;SDS011;59840;52.122;5.404;2023-05-20T12:57:39;3.33;;;0.90;;
71973;SDS011;59840;52.122;5.404;2023-05-20T13:00:06;3.92;;;1.00;;
71973;SDS011;59840;52.122;5.404;2023-05-20T13:02:34;1.93;;;1.13;;
71973;SDS011;59840;52.122;5.404;2023-05-20T13:05:05;2.17;;;1.13;;
71973;SDS011;59840;52.122;5.404;2023-05-20T13:07:32;1.95;;;1.00;;
71973;SDS011;59840;52.122;5.404;2023-05-20T13:09:59;2.15;;;1.20;;
71973;SDS011;59840;52.122;5.404;2023-05-20T13:12:25;1.73;;;1.00;;
71973;SDS011;59840;52.122;5.404;2023-05-20T13:14:52;1.27;;;0.90;;
71973;SDS011;59840;52.122;5.404;2023-05-20T13:17:18;2.90;;;1.02;;
71973;SDS011;59840;52.122;5.404;2023-05-20T13:19:45;1.40;;;0.90;;
71973;SDS011;59840;52.122;5.404;2023-05-20T13:22:11;4.10;;;1.40;;
71973;SDS011;59840;52.122;5.404;2023-05-20T13:24:38;2.03;;;0.90;;
71973;SDS011;59840;52.122;5.404;2023-05-20T13:27:05;3.90;;;0.90;;
71973;SDS011;59840;52.122;5.404;2023-05-20T13:29:31;1.77;;;1.00;;
71973;SDS011;59840;52.122;5.404;2023-05-20T13:31:58;1.33;;;1.05;;
71973;SDS011;59840;52.122;5.404;2023-05-20T13:34:27;3.03;;;1.23;;
71973;SDS011;59840;52.122;5.404;2023-05-20T13:36:54;2.00;;;1.13;;
71973;SDS011;59840;52.122;5.404;2023-05-20T13:39:20;2.50;;;1.10;;
71973;SDS011;59840;52.122;5.404;2023-05-20T13:41:47;3.45;;;0.85;;
71973;SDS011;59840;52.122;5.404;2023-05-20T13:44:14;1.55;;;1.00;;
71973;SDS011;59840;52.122;5.404;2023-05-20T13:46:40;2.20;;;0.90;;
71973;SDS011;59840;52.122;5.404;2023-05-20T13:49:07;3.05;;;1.10;;
71973;SDS011;59840;52.122;5.404;2023-05-20T13:51:34;1.73;;;1.00;;
71973;SDS011;59840;52.122;5.404;2023-05-20T13:54:00;3.30;;;0.95;;
71973;SDS011;59840;52.122;5.404;2023-05-20T13:56:27;2.08;;;1.13;;
71973;SDS011;59840;52.122;5.404;2023-05-20T13:58:54;3.10;;;1.02;;
71973;SDS011;59840;52.122;5.404;2023-05-20T14:01:21;2.80;;;1.08;;
71973;SDS011;59840;52.122;5.404;2023-05-20T14:03:48;3.13;;;0.97;;
71973;SDS011;59840;52.122;5.404;2023-05-20T14:06:14;3.78;;;1.00;;
71973;SDS011;59840;52.122;5.404;2023-05-20T14:08:44;1.48;;;0.80;;
71973;SDS011;59840;52.122;5.404;2023-05-20T14:11:11;1.45;;;0.90;;
71973;SDS011;59840;52.122;5.404;2023-05-20T14:13:38;1.73;;;0.90;;
71973;SDS011;59840;52.122;5.404;2023-05-20T14:16:04;1.40;;;0.80;;
71973;SDS011;59840;52.122;5.404;2023-05-20T14:18:31;2.75;;;0.73;;
71973;SDS011;59840;52.122;5.404;2023-05-20T14:20:58;1.23;;;0.85;;
71973;SDS011;59840;52.122;5.404;2023-05-20T14:23:24;1.23;;;0.77;;
71973;SDS011;59840;52.122;5.404;2023-05-20T14:25:51;1.23;;;1.10;;
71973;SDS011;59840;52.122;5.404;2023-05-20T14:28:18;2.10;;;0.80;;
71973;SDS011;59840;52.122;5.404;2023-05-20T14:30:44;1.40;;;1.17;;
71973;SDS011;59840;52.122;5.404;2023-05-20T14:33:11;3.20;;;0.90;;
71973;SDS011;59840;52.122;5.404;2023-05-20T14:35:38;1.85;;;0.75;;
71973;SDS011;59840;52.122;5.404;2023-05-20T14:38:04;1.20;;;0.80;;
71973;SDS011;59840;52.122;5.404;2023-05-20T14:40:32;4.37;;;0.90;;
71973;SDS011;59840;52.122;5.404;2023-05-20T14:42:59;1.80;;;0.90;;
71973;SDS011;59840;52.122;5.404;2023-05-20T14:45:25;3.05;;;1.00;;
71973;SDS011;59840;52.122;5.404;2023-05-20T14:47:52;1.52;;;0.80;;
71973;SDS011;59840;52.122;5.404;2023-05-20T14:50:19;2.15;;;0.80;;
71973;SDS011;59840;52.122;5.404;2023-05-20T14:52:45;0.97;;;0.77;;
71973;SDS011;59840;52.122;5.404;2023-05-20T14:55:12;3.88;;;1.17;;
71973;SDS011;59840;52.122;5.404;2023-05-20T14:57:39;2.05;;;0.98;;
71973;SDS011;59840;52.122;5.404;2023-05-20T15:00:06;2.83;;;0.95;;
71973;SDS011;59840;52.122;5.404;2023-05-20T15:02:34;2.25;;;1.08;;